Latest Weather Observations for Williamtown

IDN60901

Issued at 4:51 am EST Wednesday 17 July 2019 (issued every 10 minutes, with the page automatically refreshed every 10 minutes)

About weather observations | Map of Sydney area stations | Latest observations for Sydney area | Other Formats
Station Details ID: 061078 Name: WILLIAMTOWN RAAF Lat: -32.79 Lon: 151.84 Height: 7.5 m
Data from the previous 72 hours. | See also: Recent months at Williamtown
Date/Time
EST
Temp
°C
App
Temp
°C
Dew
Point
°C
Rel
Hum
%
Delta-T
°C
Wind Press
QNH
hPa
Press
MSL
hPa
Rain since
9am
mm
Dir  Spd
km/h
Gust
km/h
Spd
kts
Gust
kts
17/04:30am 9.2 2.9 3.8 69 2.4 WNW 26 33 14 18 1018.5 1018.5 0.0
17/04:00am 9.3 3.7 3.7 68 2.4 W 22 30 12 16 1018.5 1018.5 0.0
17/03:30am 9.3 3.4 3.7 68 2.4 WNW 24 30 13 16 1018.8 1018.8 0.0
17/03:00am 9.5 3.6 3.9 68 2.4 WNW 24 32 13 17 1018.9 1018.9 0.0
17/02:30am 9.2 3.7 4.0 70 2.3 WNW 22 30 12 16 1019.2 1019.2 0.0
17/02:00am 8.5 3.6 4.1 74 1.9 WNW 19 22 10 12 1019.4 1019.4 0.0
17/01:30am 9.2 4.1 4.0 70 2.3 NW 20 26 11 14 1019.5 1019.5 0.0
17/01:00am 9.4 4.3 4.2 70 2.3 WNW 20 26 11 14 1019.5 1019.5 0.0
17/12:30am 9.5 4.6 3.9 68 2.5 WNW 19 24 10 13 1019.7 1019.7 0.0
17/12:00am 9.6 5.1 4.2 69 2.4 WNW 17 22 9 12 1019.8 1019.8 0.0
 
Date/Time
EST
Temp
°C
App
Temp
°C
Dew
Point
°C
Rel
Hum
%
Delta-T
°C
Wind Press
QNH
hPa
Press
MSL
hPa
Rain since
9am
mm
Dir  Spd
km/h
Gust
km/h
Spd
kts
Gust
kts
16/11:30pm 9.8 5.5 3.5 65 2.7 NW 15 17 8 9 1019.7 1019.7 0.0
16/11:00pm 10.3 5.3 3.6 63 2.9 WNW 19 24 10 13 1019.8 1019.8 0.0
16/10:30pm 10.4 5.8 3.7 63 2.9 NW 17 19 9 10 1019.8 1019.8 0.0
16/10:00pm 10.0 5.4 3.5 64 2.8 WNW 17 19 9 10 1019.8 1019.8 0.0
16/09:30pm 10.5 5.8 3.3 61 3.1 WNW 17 20 9 11 1019.8 1019.8 0.0
16/09:00pm 12.1 7.5 3.6 56 3.8 WNW 17 22 9 12 1019.6 1019.6 0.0
16/08:30pm 12.6 7.6 3.8 55 3.9 W 19 24 10 13 1019.2 1019.2 0.0
16/08:00pm 11.8 7.9 3.6 57 3.6 WNW 13 17 7 9 1018.9 1018.9 0.0
16/07:30pm 14.5 9.8 3.3 47 5.1 W 17 26 9 14 1018.4 1018.4 0.0
16/07:00pm 14.9 10.0 4.9 51 4.7 WNW 20 28 11 15 1017.7 1017.7 0.0
16/06:30pm 14.0 9.2 5.6 57 4.0 WNW 20 26 11 14 1017.3 1017.3 0.0
16/06:00pm 11.5 10.5 5.8 68 2.6 CALM 0 0 0 0 1017.0 1017.0 0.0
16/05:30pm 13.4 11.1 5.6 59 3.7 NW 7 9 4 5 1016.4 1016.4 0.0
16/05:00pm 16.8 13.9 4.8 45 5.7 NW 9 11 5 6 1016.3 1016.3 0.0
16/04:30pm 18.0 13.5 4.2 40 6.5 WNW 17 24 9 13 1016.4 1016.4 0.0
16/04:00pm 19.0 13.5 4.0 37 7.1 WNW 22 33 12 18 1016.3 1016.3 0.0
16/03:30pm 19.2 12.9 3.8 36 7.3 WNW 26 32 14 17 1016.2 1016.2 0.0
16/03:00pm 19.4 13.5 4.0 36 7.3 WNW 24 33 13 18 1016.3 1016.3 0.0
16/02:30pm 19.1 12.9 4.1 37 7.1 WNW 26 32 14 17 1016.3 1016.3 0.0
16/02:00pm 18.9 12.0 4.7 39 6.8 WNW 30 37 16 20 1016.5 1016.5 0.0
16/01:30pm 18.5 12.0 4.7 40 6.6 WNW 28 37 15 20 1016.8 1016.8 0.0
16/01:00pm 17.6 10.6 4.2 41 6.3 WNW 30 37 16 20 1017.1 1017.1 0.0
16/12:30pm 17.2 9.7 4.2 42 6.1 WNW 33 41 18 22 1017.5 1017.5 0.0
16/12:00pm 16.6 9.3 4.3 44 5.8 WNW 32 43 17 23 1017.8 1017.8 0.0
16/11:30am 16.2 8.7 4.3 45 5.6 WNW 33 41 18 22 1018.2 1018.2 0.0
16/11:00am 15.3 8.0 4.4 48 5.1 WNW 32 41 17 22 1018.5 1018.5 0.0
16/10:30am 14.6 8.0 4.0 49 4.9 WNW 28 37 15 20 1019.0 1019.0 0.0
16/10:00am 13.6 5.7 4.2 53 4.3 WNW 35 44 19 24 1019.1 1019.1 0.0
16/09:30am 12.7 4.8 4.2 56 3.9 WNW 35 48 19 26 1019.3 1019.3 0.0
16/09:00am 11.5 3.5 3.8 59 3.4 WNW 35 48 19 26 1019.2 1019.2 0.0
16/08:30am 10.7 2.3 3.5 61 3.2 WNW 37 48 20 26 1019.0 1019.0 0.0
16/08:00am 10.0 1.9 3.3 63 2.9 WNW 35 48 19 26 1019.2 1019.2 0.0
16/07:43am 9.8 0.9 3.1 63 2.9 WNW 39 57 21 31 1018.9 1018.9 0.0
16/07:30am 9.5 1.0 3.0 64 2.8 WNW 37 48 20 26 1018.8 1018.8 0.0
16/07:00am 9.2 1.1 3.0 65 2.6 WNW 35 52 19 28 1018.4 1018.4 0.0
16/06:42am 9.2 1.1 3.0 65 2.7 WNW 35 56 19 30 1018.0 1018.0 0.0
16/06:30am 9.1 0.9 2.9 65 2.6 WNW 35 48 19 26 1017.9 1017.9 0.0
16/06:00am 9.2 1.1 3.0 65 2.6 WNW 35 46 19 25 1017.4 1017.4 0.0
16/05:30am 9.2 1.4 3.0 65 2.7 WNW 33 41 18 22 1017.1 1017.1 0.0
16/05:00am 9.3 1.7 3.1 65 2.7 WNW 32 44 17 24 1017.1 1017.1 0.0
16/04:43am 9.5 1.9 3.0 64 2.8 WNW 32 50 17 27 1017.0 1017.0 0.0
16/04:30am 9.3 1.5 2.9 64 2.7 WNW 33 44 18 24 1017.1 1017.1 0.0
16/04:00am 9.4 1.6 2.9 64 2.8 WNW 33 41 18 22 1017.2 1017.2 0.0
16/03:30am 9.6 1.4 2.9 63 2.9 WNW 35 44 19 24 1017.3 1017.3 0.0
16/03:00am 9.8 2.0 2.9 62 3.0 WNW 33 48 18 26 1017.7 1017.7 0.0
16/02:30am 9.8 2.2 2.9 62 3.0 WNW 32 44 17 24 1017.9 1017.9 0.0
16/02:00am 10.1 2.5 2.9 61 3.1 WNW 32 46 17 25 1018.2 1018.2 0.0
16/01:30am 10.0 3.2 3.1 62 3.0 NW 28 33 15 18 1018.6 1018.6 0.0
16/01:00am 9.6 3.2 3.1 64 2.8 NW 26 32 14 17 1018.8 1018.8 0.0
16/12:30am 10.2 2.6 3.0 61 3.1 WNW 32 44 17 24 1018.5 1018.5 0.0
16/12:00am 9.7 2.9 3.0 63 2.9 WNW 28 35 15 19 1018.8 1018.8 0.0
 
Date/Time
EST
Temp
°C
App
Temp
°C
Dew
Point
°C
Rel
Hum
%
Delta-T
°C
Wind Press
QNH
hPa
Press
MSL
hPa
Rain since
9am
mm
Dir  Spd
km/h
Gust
km/h
Spd
kts
Gust
kts
15/11:30pm 9.7 3.6 2.8 62 2.9 WNW 24 32 13 17 1019.0 1019.0 0.0
15/11:00pm 9.6 4.2 2.5 61 3.0 WNW 20 26 11 14 1019.2 1019.2 0.0
15/10:30pm 9.1 3.8 2.0 61 3.0 WNW 19 24 10 13 1019.4 1019.4 0.0
15/10:00pm 9.0 4.1 1.7 60 3.0 WNW 17 26 9 14 1019.3 1019.3 0.0
15/09:30pm 8.1 2.8 1.9 65 2.6 WNW 19 22 10 12 1019.2 1019.2 0.0
15/09:00pm 8.0 3.8 1.4 63 2.7 NW 13 13 7 7 1019.3 1019.3 0.0
15/08:30pm 8.2 4.4 1.6 63 2.7 WNW 11 15 6 8 1019.1 1019.1 0.0
15/08:00pm 7.9 4.1 1.5 64 2.6 W 11 13 6 7 1018.8 1018.8 0.0
15/07:30pm 8.4 4.9 1.3 61 2.9 WNW 9 11 5 6 1018.8 1018.8 0.0
15/07:00pm 10.6 6.4 1.4 53 3.8 WNW 13 20 7 11 1018.5 1018.5 0.0
15/06:30pm 8.0 3.8 1.8 65 2.5 WNW 13 19 7 10 1018.2 1018.2 0.0
15/06:00pm 9.9 6.4 1.5 56 3.5 NW 9 9 5 5 1017.9 1017.9 0.0
15/05:30pm 13.1 9.4 -0.2 40 5.5 WSW 9 9 5 5 1017.8 1017.8 0.0
15/05:00pm 13.8 9.3 -0.6 37 5.9 WSW 13 15 7 8 1017.7 1017.7 0.0
15/04:30pm 15.9 10.5 -1.2 31 7.1 SW 17 20 9 11 1017.4 1017.4 0.0
15/04:00pm 16.9 11.2 -0.8 30 7.5 SW 19 28 10 15 1017.2 1017.2 0.0
15/03:30pm 17.2 10.4 -1.9 27 7.9 SW 24 33 13 18 1016.9 1016.9 0.0
15/03:00pm 17.3 10.4 -2.9 25 8.2 SW 24 32 13 17 1016.6 1016.6 0.0
15/02:30pm 17.6 11.1 0.3 31 7.5 SW 24 33 13 18 1016.3 1016.3 0.0
15/02:00pm 17.6 10.6 -0.2 30 7.7 SW 26 35 14 19 1016.1 1016.1 0.0
15/01:30pm 17.6 11.1 0.3 31 7.5 SW 24 35 13 19 1016.1 1016.1 0.0
15/01:00pm 17.3 9.0 0.0 31 7.4 SW 33 44 18 24 1016.1 1016.1 0.0
15/12:30pm 17.0 8.6 -0.7 30 7.5 SSW 33 44 18 24 1016.5 1016.5 0.0
15/12:00pm 17.1 9.1 0.3 32 7.3 SSW 32 39 17 21 1016.6 1016.6 0.0
15/11:48am 17.2 8.9 -0.1 31 7.4 SSW 33 52 18 28 1016.6 1016.6 0.0
15/11:30am 16.5 8.1 -0.7 31 7.3 SW 33 44 18 24 1016.8 1016.8 0.0
15/11:25am 17.2 9.0 0.4 32 7.3 SW 33 43 18 23 1016.8 1016.8 0.0
15/11:15am 17.1 9.6 1.1 34 7.0 WSW 30 48 16 26 1016.7 1016.7 0.0
15/11:00am 16.6 9.3 2.6 39 6.3 WSW 30 39 16 21 1016.9 1016.9 0.0
15/10:30am 15.4 8.2 4.8 49 5.0 WNW 32 46 17 25 1016.7 1016.7 0.0
15/10:00am 14.7 7.4 5.5 54 4.4 WNW 33 48 18 26 1016.7 1016.7 0.0
15/09:30am 13.6 5.1 5.0 56 4.0 WNW 39 48 21 26 1016.6 1016.6 0.0
15/09:00am 13.1 5.2 4.5 56 3.9 WNW 35 46 19 25 1016.2 1016.2 0.0
15/08:30am 12.8 5.8 4.3 56 3.9 W 30 41 16 22 1015.6 1015.6 0.0
15/08:07am 12.2 3.8 3.7 56 3.8 WNW 37 56 20 30 1015.0 1015.0 0.0
15/08:00am 12.0 3.6 3.8 57 3.7 WNW 37 52 20 28 1014.9 1014.9 0.0
15/07:30am 11.4 2.6 3.7 59 3.4 WNW 39 52 21 28 1013.9 1013.9 0.0
15/07:00am 10.8 2.8 3.6 61 3.2 WNW 35 50 19 27 1013.7 1013.7 0.0
15/06:30am 10.9 2.5 3.7 61 3.2 WNW 37 56 20 30 1013.4 1013.4 0.0
15/06:20am 11.1 2.7 3.6 60 3.3 WNW 37 57 20 31 1012.9 1012.9 0.0
15/06:00am 11.2 2.8 3.7 60 3.3 WNW 37 52 20 28 1012.8 1012.8 0.0
15/05:45am 10.9 2.9 3.7 61 3.2 WNW 35 56 19 30 1012.4 1012.4 0.0
15/05:30am 10.8 2.4 3.6 61 3.2 WNW 37 54 20 29 1012.3 1012.3 0.0
15/05:23am 10.6 1.4 3.6 62 3.1 WNW 41 59 22 32 1012.0 1012.0 0.0
15/05:00am 11.0 1.4 3.5 60 3.3 WNW 43 59 23 32 1011.9 1011.9 0.0
15/04:52am 11.0 1.8 3.5 60 3.3 WNW 41 59 22 32 1011.9 1011.9 0.0
15/04:30am 10.9 1.3 3.5 60 3.3 WNW 43 56 23 30 1011.4 1011.4 0.0
15/04:00am 11.2 0.6 3.0 57 3.6 WNW 48 59 26 32 1011.6 1011.6 0.0
15/03:46am 11.4 1.1 2.9 56 3.7 WNW 46 69 25 37 1011.6 1011.6 0.0
15/03:30am 11.1 2.1 2.7 56 3.6 WNW 39 54 21 29 1012.1 1012.1 0.0
15/03:16am 10.8 1.8 2.6 57 3.5 NW 39 57 21 31 1012.1 1012.1 0.0
15/03:00am 10.9 0.6 2.5 56 3.6 NW 46 59 25 32 1012.2 1012.2 0.0
15/02:30am 10.7 0.9 2.3 56 3.6 NW 43 56 23 30 1013.0 1013.0 0.0
15/02:00am 10.3 3.0 2.2 57 3.4 WNW 30 41 16 22 1014.5 1014.5 0.0
15/01:30am 10.1 2.3 2.0 57 3.4 WNW 32 50 17 27 1015.0 1015.0 0.0
15/01:24am 9.9 2.1 1.8 57 3.4 NW 32 50 17 27 1014.9 1014.9 0.0
15/01:00am 10.1 2.7 1.7 56 3.5 WNW 30 37 16 20 1015.5 1015.5 0.0
15/12:30am 10.2 2.4 1.6 55 3.6 NW 32 43 17 23 1015.6 1015.6 0.0
15/12:00am 10.1 1.3 1.2 54 3.7 WNW 37 54 20 29 1015.7 1015.7 0.0
 
Date/Time
EST
Temp
°C
App
Temp
°C
Dew
Point
°C
Rel
Hum
%
Delta-T
°C
Wind Press
QNH
hPa
Press
MSL
hPa
Rain since
9am
mm
Dir  Spd
km/h
Gust
km/h
Spd
kts
Gust
kts
14/11:47pm 10.2 1.0 1.3 54 3.7 WNW 39 57 21 31 1016.1 1016.1 0.0
14/11:30pm 10.2 1.4 1.1 53 3.8 WNW 37 48 20 26 1015.7 1015.7 0.0
14/11:15pm 10.4 1.6 1.2 53 3.8 WNW 37 59 20 32 1015.9 1015.9 0.0
14/11:00pm 10.4 1.9 1.0 52 3.9 WNW 35 48 19 26 1016.4 1016.4 0.0
14/10:30pm 10.5 3.4 1.1 52 3.9 WNW 28 37 15 20 1016.9 1016.9 0.0
14/10:00pm 10.6 2.1 0.9 51 4.0 WNW 35 50 19 27 1016.4 1016.4 0.0
14/09:30pm 10.8 0.6 0.8 50 4.1 WNW 44 57 24 31 1015.9 1015.9 0.0
14/09:00pm 11.0 1.7 0.7 49 4.2 WNW 39 63 21 34 1016.2 1016.2 0.0
14/08:54pm 11.1 3.0 0.8 49 4.3 WNW 33 54 18 29 1016.6 1016.6 0.0
14/08:30pm 11.1 2.2 0.5 48 4.4 WNW 37 50 20 27 1016.9 1016.9 0.0
14/08:00pm 11.9 3.9 0.4 45 4.7 WNW 32 48 17 26 1016.8 1016.8 0.0
14/07:30pm 12.2 3.2 0.0 43 5.0 WNW 37 48 20 26 1016.8 1016.8 0.0
14/07:00pm 12.7 4.5 0.1 42 5.2 WNW 33 50 18 27 1016.7 1016.7 0.0
14/06:30pm 12.8 4.2 0.2 42 5.2 WNW 35 46 19 25 1016.4 1016.4 0.0
14/06:00pm 13.3 4.6 -0.3 39 5.6 WNW 35 50 19 27 1016.2 1016.2 0.0
14/05:30pm 13.6 4.9 -0.4 38 5.8 NW 35 52 19 28 1015.4 1015.4 0.0
14/05:00pm 14.0 5.8 -0.8 36 6.1 NW 32 50 17 27 1015.4 1015.4 0.0
14/04:30pm 14.6 5.9 -0.3 36 6.2 NW 35 54 19 29 1015.8 1015.8 0.0
14/04:24pm 14.7 6.6 -0.2 36 6.2 NW 32 54 17 29 1015.8 1015.8 0.0
14/04:00pm 15.1 6.8 -0.2 35 6.4 NW 33 50 18 27 1015.8 1015.8 0.0
14/03:34pm 15.5 6.9 0.1 35 6.5 NW 35 54 19 29 1016.1 1016.1 0.0
14/03:30pm 15.5 6.8 -0.3 34 6.7 WNW 35 50 19 27 1016.2 1016.2 0.0
14/03:10pm 15.8 6.8 0.4 35 6.6 NW 37 56 20 30 1016.3 1016.3 0.0
14/03:00pm 15.6 6.6 -0.2 34 6.7 NW 37 54 20 29 1016.2 1016.2 0.0
14/02:34pm 15.8 6.5 0.4 35 6.6 WNW 39 57 21 31 1016.7 1016.7 0.0
14/02:30pm 15.6 5.8 -0.2 34 6.7 WNW 41 57 22 31 1016.6 1016.6 0.0
14/02:29pm 15.6 6.2 -0.2 34 6.7 WNW 39 57 21 31 1016.6 1016.6 0.0
14/02:00pm 15.2 6.2 0.2 36 6.4 NW 37 52 20 28 1017.3 1017.3 0.0
14/01:30pm 14.9 6.8 0.7 38 6.1 NW 33 44 18 24 1017.8 1017.8 0.0
14/01:22pm 14.5 5.9 0.0 37 6.1 NW 35 54 19 29 1018.1 1018.1 0.0
14/01:00pm 14.5 4.8 0.7 39 5.9 WNW 41 54 22 29 1018.4 1018.4 0.0
14/12:30pm 14.1 6.0 0.7 40 5.7 NW 33 48 18 26 1019.4 1019.4 0.0
14/12:00pm 13.5 4.5 0.2 40 5.5 WNW 37 52 20 28 1020.3 1020.3 0.0
14/11:30am 13.1 4.5 0.5 42 5.3 WNW 35 48 19 26 1021.0 1021.0 0.0
14/11:00am 12.3 3.7 0.4 44 4.9 WNW 35 44 19 24 1021.6 1021.6 0.0
14/10:30am 12.3 4.2 0.7 45 4.8 WNW 33 41 18 22 1022.1 1022.1 0.0
14/10:00am 11.3 3.2 0.7 48 4.4 WNW 33 41 18 22 1022.4 1022.4 0.0
14/09:30am 10.6 2.1 0.9 51 4.0 WNW 35 44 19 24 1022.7 1022.7 0.0
14/09:00am 9.8 1.7 1.2 55 3.5 WNW 33 43 18 23 1022.6 1022.6 0.0
14/08:30am 9.2 1.7 1.1 57 3.3 WNW 30 39 16 21 1022.6 1022.6 0.0
14/08:00am 8.3 0.8 1.0 60 2.9 WNW 30 37 16 20 1022.6 1022.6 0.0
14/07:30am 7.4 0.3 1.3 65 2.5 WNW 28 35 15 19 1022.2 1022.2 0.0
14/07:00am 7.0 -0.9 0.9 65 2.4 WNW 32 39 17 21 1021.9 1021.9 0.0
14/06:30am 7.4 -0.2 0.6 62 2.7 WNW 30 37 16 20 1021.8 1021.8 0.0
14/06:00am 7.5 0.3 0.5 61 2.8 WNW 28 35 15 19 1021.7 1021.7 0.0
14/05:30am 7.4 0.5 0.4 61 2.8 WNW 26 33 14 18 1021.4 1021.4 0.0
14/05:00am 7.5 0.6 0.3 60 2.8 WNW 26 30 14 16 1021.2 1021.2 0.0

Latest Capital City Observations: Canberra | Sydney | Melbourne | Brisbane | Adelaide | Perth | Hobart | Darwin

Other formats

Comma delimited format used in spreadsheet applications
http://www.bom.gov.au/fwo/IDN60901/IDN60901.94776.axf

JavaScript Object Notation format (JSON) in row-major order
http://www.bom.gov.au/fwo/IDN60901/IDN60901.94776.json

Data quality

Most of these data are generated automatically and are frequently updated. Quality checks on data are not normally performed. It is possible for incorrect values to appear. Refer to information at About Latest Weather Observations and please check the disclaimer before using these data.